createdAt,value
2024-02-17T00:00:41.036Z,12.80
2024-02-17T00:01:43.885Z,10.20
2024-02-17T00:02:46.148Z,13.13
2024-02-17T00:03:48.472Z,11.63
2024-02-17T00:04:50.851Z,10.70
2024-02-17T00:05:53.251Z,16.20
2024-02-17T00:06:56.487Z,12.50
2024-02-17T00:07:58.768Z,12.57
2024-02-17T00:09:00.988Z,12.63
2024-02-17T00:10:04.856Z,11.43
2024-02-17T00:11:07.310Z,10.32
2024-02-17T00:12:10.304Z,13.30
2024-02-17T00:13:12.536Z,10.55
2024-02-17T00:14:14.774Z,11.43
2024-02-17T00:15:17.341Z,15.07
2024-02-17T00:16:20.741Z,13.35
2024-02-17T00:17:23.010Z,10.80
2024-02-17T00:18:30.065Z,12.32
2024-02-17T00:19:32.889Z,13.65
2024-02-17T00:20:35.281Z,13.30
2024-02-17T00:21:37.551Z,9.95
2024-02-17T00:22:39.847Z,14.30
2024-02-17T00:23:42.055Z,13.43
2024-02-17T00:24:44.467Z,10.98
2024-02-17T00:25:49.457Z,13.43
2024-02-17T00:26:52.131Z,10.20
2024-02-17T00:27:54.329Z,13.57
2024-02-17T00:28:58.596Z,18.15
2024-02-17T00:30:01.219Z,13.65
2024-02-17T00:31:03.480Z,11.75
2024-02-17T00:32:05.845Z,14.75
2024-02-17T00:33:08.119Z,10.43
2024-02-17T00:34:10.827Z,11.15
2024-02-17T00:35:13.101Z,14.73
2024-02-17T00:36:15.441Z,13.60
2024-02-17T00:37:17.726Z,11.32
2024-02-17T00:38:20.477Z,10.45
2024-02-17T00:39:22.682Z,13.88
2024-02-17T00:40:25.387Z,14.43
2024-02-17T00:41:28.143Z,15.23
2024-02-17T00:42:30.357Z,11.68
2024-02-17T00:43:32.527Z,10.18
2024-02-17T00:44:35.517Z,9.85
2024-02-17T00:45:37.758Z,14.60
2024-02-17T00:46:39.912Z,12.93
2024-02-17T00:47:42.261Z,11.10
2024-02-17T00:48:44.540Z,8.98
2024-02-17T00:49:47.484Z,12.13
2024-02-17T00:50:57.650Z,11.00
2024-02-17T00:52:04.562Z,9.68
2024-02-17T00:53:06.783Z,10.82
2024-02-17T00:54:09.292Z,11.18
2024-02-17T00:55:12.214Z,11.68
2024-02-17T00:56:14.455Z,11.77
2024-02-17T00:57:17.247Z,10.00
2024-02-17T00:58:19.531Z,9.48
2024-02-17T00:59:21.774Z,15.75
2024-02-17T01:00:24.360Z,14.23
2024-02-17T01:01:33.615Z,10.63
2024-02-17T01:02:41.239Z,13.07
2024-02-17T01:03:43.638Z,11.52
2024-02-17T01:04:45.921Z,12.70
2024-02-17T01:05:48.271Z,15.43
2024-02-17T01:06:50.719Z,11.80
2024-02-17T01:07:53.053Z,11.27
2024-02-17T01:08:55.427Z,12.85
2024-02-17T01:09:57.782Z,15.32
2024-02-17T01:11:00.051Z,11.52
2024-02-17T01:12:02.397Z,12.43
2024-02-17T01:13:04.912Z,11.25
2024-02-17T01:14:07.207Z,9.73
2024-02-17T01:15:10.306Z,13.98
2024-02-17T01:16:12.594Z,14.57
2024-02-17T01:17:14.819Z,18.75
2024-02-17T01:18:17.180Z,14.20
2024-02-17T01:19:20.232Z,12.50
2024-02-17T01:20:23.092Z,16.05
2024-02-17T01:21:25.337Z,14.25
2024-02-17T01:22:27.607Z,15.18
2024-02-17T01:23:29.896Z,15.80
2024-02-17T01:24:32.166Z,14.82
2024-02-17T01:25:34.446Z,15.75
2024-02-17T01:26:36.759Z,17.98
2024-02-17T01:27:39.051Z,22.60
2024-02-17T01:28:41.331Z,10.10
2024-02-17T01:29:43.561Z,8.70
2024-02-17T01:30:45.916Z,16.63
2024-02-17T01:31:48.184Z,17.55
2024-02-17T01:32:50.424Z,12.73
2024-02-17T01:33:52.902Z,14.48
2024-02-17T01:34:55.192Z,16.58
2024-02-17T01:35:57.564Z,16.20
2024-02-17T01:36:59.837Z,16.05
2024-02-17T01:38:03.480Z,11.52
2024-02-17T01:39:06.437Z,14.32
2024-02-17T01:40:09.133Z,15.82
2024-02-17T01:41:11.386Z,16.25
2024-02-17T01:42:13.689Z,13.77
2024-02-17T01:43:16.017Z,16.30
2024-02-17T01:44:18.226Z,16.48
2024-02-17T01:45:20.456Z,12.95
2024-02-17T01:46:23.697Z,13.80
2024-02-17T01:47:26.067Z,14.13
2024-02-17T01:48:29.309Z,14.73
2024-02-17T01:49:32.045Z,21.48
2024-02-17T01:50:34.520Z,16.10
2024-02-17T01:51:36.965Z,11.77
2024-02-17T01:52:39.797Z,12.50
2024-02-17T01:53:43.727Z,18.75
2024-02-17T01:54:47.050Z,11.55
2024-02-17T01:55:49.649Z,16.20
2024-02-17T01:56:52.062Z,11.30
2024-02-17T01:57:54.623Z,14.90
2024-02-17T01:58:57.281Z,16.50
2024-02-17T01:59:59.532Z,16.33
2024-02-17T02:01:02.372Z,12.65
2024-02-17T02:02:05.747Z,11.85
2024-02-17T02:03:08.405Z,13.27
2024-02-17T02:04:14.277Z,23.50
2024-02-17T02:05:16.663Z,15.48
2024-02-17T02:06:22.173Z,13.65
2024-02-17T02:07:24.475Z,8.68
2024-02-17T02:08:26.783Z,14.10
2024-02-17T02:09:29.173Z,12.25
2024-02-17T02:10:31.496Z,12.65
2024-02-17T02:11:34.762Z,11.77
2024-02-17T02:12:37.240Z,11.00
2024-02-17T02:13:39.724Z,14.40
2024-02-17T02:14:42.010Z,13.05
2024-02-17T02:15:53.352Z,11.57
2024-02-17T02:16:57.124Z,12.43
2024-02-17T02:17:59.518Z,15.27
2024-02-17T02:19:01.863Z,17.17
2024-02-17T02:20:06.251Z,14.75
2024-02-17T02:21:09.333Z,13.55
2024-02-17T02:22:11.640Z,9.65
2024-02-17T02:23:13.900Z,12.07
2024-02-17T02:24:16.203Z,9.77
2024-02-17T02:25:28.728Z,15.38
2024-02-17T02:26:31.827Z,21.25
2024-02-17T02:27:40.891Z,18.27
2024-02-17T02:28:43.237Z,14.23
2024-02-17T02:29:48.654Z,10.30
2024-02-17T02:30:54.282Z,11.15
2024-02-17T02:31:56.719Z,11.38
2024-02-17T02:32:59.982Z,10.68
2024-02-17T02:34:02.727Z,16.92
2024-02-17T02:35:05.578Z,7.60
2024-02-17T02:36:08.126Z,8.70
2024-02-17T02:37:10.454Z,10.15
2024-02-17T02:38:12.726Z,9.43
2024-02-17T02:39:15.095Z,7.80
2024-02-17T02:40:17.510Z,8.70
2024-02-17T02:41:19.783Z,10.25
2024-02-17T02:42:22.022Z,12.63
2024-02-17T02:43:24.431Z,9.93
2024-02-17T02:44:26.683Z,9.43
2024-02-17T02:45:29.038Z,7.00
2024-02-17T02:46:31.382Z,6.47
2024-02-17T02:47:34.149Z,6.65
2024-02-17T02:48:36.597Z,8.30
2024-02-17T02:49:39.036Z,6.55
2024-02-17T02:50:41.445Z,12.70
2024-02-17T02:51:43.904Z,9.88
2024-02-17T02:52:46.366Z,8.13
2024-02-17T02:53:48.715Z,5.88
2024-02-17T02:54:51.099Z,13.02
2024-02-17T02:55:54.177Z,6.03
2024-02-17T02:56:56.413Z,9.80
2024-02-17T02:57:58.616Z,6.00
2024-02-17T02:59:00.957Z,7.70
2024-02-17T03:00:04.863Z,6.13
2024-02-17T03:01:07.397Z,5.55
2024-02-17T03:02:10.048Z,5.13
2024-02-17T03:03:12.520Z,5.63
2024-02-17T03:04:15.069Z,7.93
2024-02-17T03:05:17.674Z,8.43
2024-02-17T03:06:20.154Z,8.13
2024-02-17T03:07:22.598Z,3.28
2024-02-17T03:08:24.823Z,4.47
2024-02-17T03:09:27.151Z,5.15
2024-02-17T03:10:29.503Z,9.93
2024-02-17T03:11:31.910Z,9.75
2024-02-17T03:12:34.656Z,11.13
2024-02-17T03:13:37.407Z,12.23
2024-02-17T03:14:43.346Z,4.47
2024-02-17T03:15:45.847Z,4.53
2024-02-17T03:16:48.185Z,9.90
2024-02-17T03:17:54.822Z,6.22
2024-02-17T03:18:57.129Z,14.52
2024-02-17T03:19:59.636Z,7.38
2024-02-17T03:21:01.886Z,6.82
2024-02-17T03:22:04.293Z,9.30
2024-02-17T03:23:06.589Z,6.47
2024-02-17T03:24:09.289Z,5.43
2024-02-17T03:25:12.410Z,5.18
2024-02-17T03:26:14.605Z,9.43
2024-02-17T03:27:16.928Z,9.10
2024-02-17T03:28:19.177Z,13.52
2024-02-17T03:29:21.463Z,8.15
2024-02-17T03:30:23.829Z,6.13
2024-02-17T03:31:26.081Z,6.45
2024-02-17T03:32:28.720Z,6.95
2024-02-17T03:33:31.195Z,4.45
2024-02-17T03:34:33.781Z,9.82
2024-02-17T03:35:36.338Z,5.40
2024-02-17T03:36:38.752Z,7.50
2024-02-17T03:37:41.120Z,4.40
2024-02-17T03:38:43.329Z,5.60
2024-02-17T03:39:47.121Z,9.07
2024-02-17T03:40:49.562Z,6.28
2024-02-17T03:41:52.820Z,14.80
2024-02-17T03:42:55.188Z,6.07
2024-02-17T03:43:57.450Z,6.30
2024-02-17T03:44:59.672Z,12.40
2024-02-17T03:46:02.038Z,5.43
2024-02-17T03:47:04.462Z,6.68
2024-02-17T03:48:07.364Z,6.72
2024-02-17T03:49:11.016Z,7.70
2024-02-17T03:50:13.547Z,12.10
2024-02-17T03:51:16.073Z,15.35
2024-02-17T03:52:18.679Z,7.40
2024-02-17T03:53:20.999Z,7.85
2024-02-17T03:54:23.404Z,14.13
2024-02-17T03:55:25.692Z,5.85
2024-02-17T03:56:28.072Z,4.10
2024-02-17T03:57:30.554Z,3.72
2024-02-17T03:58:32.893Z,6.10
2024-02-17T03:59:35.437Z,3.25
2024-02-17T04:00:37.768Z,6.43
2024-02-17T04:01:41.718Z,4.53
2024-02-17T04:02:43.963Z,6.75
2024-02-17T04:03:46.229Z,3.70
2024-02-17T04:04:48.541Z,5.90
2024-02-17T04:05:50.862Z,4.28
2024-02-17T04:06:53.412Z,4.03
2024-02-17T04:07:55.967Z,3.95
2024-02-17T04:08:58.958Z,8.18
2024-02-17T04:10:01.480Z,7.15
2024-02-17T04:11:04.295Z,9.40
2024-02-17T04:12:06.924Z,6.53
2024-02-17T04:13:09.270Z,5.90
2024-02-17T04:14:11.600Z,3.72
2024-02-17T04:15:13.863Z,9.40
2024-02-17T04:16:16.195Z,5.50
2024-02-17T04:17:18.782Z,5.22
2024-02-17T04:18:21.203Z,7.43
2024-02-17T04:19:23.626Z,8.57
2024-02-17T04:20:26.130Z,8.77
2024-02-17T04:21:28.614Z,6.10
2024-02-17T04:22:31.275Z,12.50
2024-02-17T04:23:34.219Z,7.22
2024-02-17T04:24:36.570Z,5.88
2024-02-17T04:25:41.763Z,11.65
2024-02-17T04:26:44.037Z,5.80
2024-02-17T04:27:46.873Z,9.45
2024-02-17T04:28:49.231Z,8.48
2024-02-17T04:29:51.692Z,6.55
2024-02-17T04:30:54.100Z,5.57
2024-02-17T04:31:58.149Z,6.95
2024-02-17T04:33:01.056Z,4.82
2024-02-17T04:34:03.470Z,5.97
2024-02-17T04:35:06.480Z,7.57
2024-02-17T04:36:09.913Z,6.55
2024-02-17T04:37:12.238Z,3.95
2024-02-17T04:38:15.166Z,3.88
2024-02-17T04:39:18.130Z,6.60
2024-02-17T04:40:20.582Z,4.57
2024-02-17T04:41:22.804Z,4.43
2024-02-17T04:42:25.113Z,3.13
2024-02-17T04:43:27.554Z,10.82
2024-02-17T04:44:29.784Z,6.07
2024-02-17T04:45:32.171Z,6.90
2024-02-17T04:46:34.470Z,4.70
2024-02-17T04:47:37.265Z,7.55
2024-02-17T04:48:39.478Z,15.00
2024-02-17T04:49:41.768Z,5.18
2024-02-17T04:50:44.207Z,6.25
2024-02-17T04:51:47.760Z,6.28
2024-02-17T04:52:50.206Z,3.95
2024-02-17T04:53:52.856Z,5.78
2024-02-17T04:54:55.112Z,5.38
2024-02-17T04:55:57.649Z,4.85
2024-02-17T04:56:59.917Z,5.65
2024-02-17T04:58:02.237Z,8.68
2024-02-17T04:59:04.474Z,3.13
2024-02-17T05:00:07.695Z,7.07
2024-02-17T05:01:10.871Z,7.47
2024-02-17T05:02:13.282Z,2.90
2024-02-17T05:03:16.777Z,2.58
2024-02-17T05:04:19.296Z,3.78
2024-02-17T05:05:21.645Z,6.20
2024-02-17T05:06:24.142Z,3.70
2024-02-17T05:07:26.358Z,5.00
2024-02-17T05:08:28.604Z,4.53
2024-02-17T05:09:30.925Z,4.53
2024-02-17T05:10:33.402Z,5.47
2024-02-17T05:11:35.606Z,4.63
2024-02-17T05:12:38.221Z,4.15
2024-02-17T05:13:40.534Z,3.10
2024-02-17T05:14:42.869Z,2.85
2024-02-17T05:15:45.269Z,6.78
2024-02-17T05:16:47.746Z,2.25
2024-02-17T05:17:50.012Z,4.38
2024-02-17T05:18:52.407Z,1.85
2024-02-17T05:19:54.884Z,5.22
2024-02-17T05:20:57.132Z,2.50
2024-02-17T05:21:59.987Z,5.25
2024-02-17T05:23:02.194Z,3.35
2024-02-17T05:24:05.197Z,2.75
2024-02-17T05:25:07.670Z,7.55
2024-02-17T05:26:09.940Z,3.35
2024-02-17T05:27:13.348Z,6.70
2024-02-17T05:28:16.239Z,2.22
2024-02-17T05:29:18.426Z,2.88
2024-02-17T05:30:20.830Z,2.53
2024-02-17T05:31:27.920Z,3.20
2024-02-17T05:32:30.262Z,3.00
2024-02-17T05:33:33.018Z,2.95
2024-02-17T05:34:36.227Z,4.80
2024-02-17T05:35:38.510Z,2.40
2024-02-17T05:36:40.773Z,5.68
2024-02-17T05:37:43.090Z,2.17
2024-02-17T05:38:45.383Z,3.65
2024-02-17T05:39:47.772Z,3.45
2024-02-17T05:40:50.621Z,7.13
2024-02-17T05:41:53.619Z,8.48
2024-02-17T05:42:55.889Z,6.38
2024-02-17T05:43:58.124Z,5.82
2024-02-17T05:45:00.433Z,5.32
2024-02-17T05:46:02.776Z,1.90
2024-02-17T05:47:05.381Z,3.17
2024-02-17T05:48:07.996Z,4.93
2024-02-17T05:49:11.166Z,5.00
2024-02-17T05:50:13.537Z,5.03
2024-02-17T05:51:15.893Z,7.65
2024-02-17T05:52:18.237Z,6.55
2024-02-17T05:53:21.215Z,2.22
2024-02-17T05:54:23.565Z,6.93
2024-02-17T05:55:25.880Z,3.58
2024-02-17T05:56:28.097Z,2.35
2024-02-17T05:57:30.410Z,2.42
2024-02-17T05:58:32.691Z,3.30
2024-02-17T05:59:34.928Z,2.22
2024-02-17T06:00:37.212Z,3.15
2024-02-17T06:01:39.596Z,4.55
2024-02-17T06:02:41.905Z,3.58
2024-02-17T06:03:44.521Z,1.85
2024-02-17T06:04:47.088Z,2.92
2024-02-17T06:05:49.350Z,4.30
2024-02-17T06:06:51.722Z,3.75
2024-02-17T06:07:54.102Z,3.53
2024-02-17T06:08:56.406Z,1.95
2024-02-17T06:09:58.720Z,5.30
2024-02-17T06:11:01.075Z,4.40
2024-02-17T06:12:03.765Z,2.25
2024-02-17T06:13:07.321Z,0.70
2024-02-17T06:14:09.608Z,1.15
2024-02-17T06:15:11.898Z,4.47
2024-02-17T06:16:14.330Z,1.02
2024-02-17T06:17:24.348Z,0.82
2024-02-17T06:18:45.602Z,0.55
2024-02-17T06:20:23.373Z,1.33
2024-02-17T06:21:25.589Z,0.90
2024-02-17T06:22:27.906Z,2.95
2024-02-17T06:23:30.197Z,0.77
2024-02-17T06:24:32.517Z,0.40
2024-02-17T06:25:35.136Z,0.68
2024-02-17T06:26:37.557Z,1.40
2024-02-17T06:27:39.906Z,1.77
2024-02-17T06:28:42.695Z,2.28
2024-02-17T06:29:45.545Z,0.95
2024-02-17T06:30:48.054Z,2.15
2024-02-17T06:31:50.323Z,0.95
2024-02-17T06:32:52.525Z,1.52
2024-02-17T06:33:55.098Z,4.13
2024-02-17T06:34:57.479Z,1.50
2024-02-17T06:35:59.654Z,2.10
2024-02-17T06:37:04.950Z,0.20
2024-02-17T06:38:07.169Z,0.50
2024-02-17T06:39:09.587Z,1.30
2024-02-17T06:40:12.174Z,1.23
2024-02-17T06:41:14.728Z,1.15
2024-02-17T06:42:18.857Z,0.20
2024-02-17T06:43:21.221Z,3.83
2024-02-17T06:44:26.653Z,0.80
2024-02-17T06:45:28.890Z,1.33
2024-02-17T06:46:31.499Z,2.25
2024-02-17T06:47:33.693Z,1.92
2024-02-17T06:48:37.477Z,0.80
2024-02-17T06:49:39.866Z,3.28
2024-02-17T06:50:42.115Z,2.97
2024-02-17T06:51:44.393Z,0.77
2024-02-17T06:52:46.580Z,0.75
2024-02-17T06:53:48.961Z,1.33
2024-02-17T06:54:51.326Z,0.73
2024-02-17T06:55:53.490Z,1.70
2024-02-17T06:56:55.657Z,2.17
2024-02-17T06:57:57.920Z,1.95
2024-02-17T06:59:00.183Z,1.17
2024-02-17T07:00:02.331Z,0.63
2024-02-17T07:01:04.928Z,2.70
2024-02-17T07:02:07.253Z,0.60
2024-02-17T07:03:09.500Z,2.55
2024-02-17T07:04:11.766Z,3.42
2024-02-17T07:05:16.876Z,1.45
2024-02-17T07:06:20.228Z,1.33
2024-02-17T07:07:24.408Z,2.42
2024-02-17T07:08:27.534Z,3.03
2024-02-17T07:09:30.846Z,0.90
2024-02-17T07:10:33.151Z,1.63
2024-02-17T07:11:35.562Z,1.20
2024-02-17T07:12:39.119Z,0.60
2024-02-17T07:13:44.264Z,0.60
2024-02-17T07:14:46.440Z,2.72
2024-02-17T07:15:48.777Z,1.55
2024-02-17T07:16:51.805Z,3.50
2024-02-17T07:17:54.176Z,3.67
2024-02-17T07:18:59.181Z,3.35
2024-02-17T07:20:01.848Z,1.02
2024-02-17T07:21:04.828Z,4.60
2024-02-17T07:22:09.633Z,3.28
2024-02-17T07:23:16.885Z,2.75
2024-02-17T07:24:19.321Z,5.22
2024-02-17T07:25:21.686Z,3.00
2024-02-17T07:26:23.863Z,2.40
2024-02-17T07:27:28.359Z,0.47
2024-02-17T07:28:33.667Z,2.00
2024-02-17T07:29:38.590Z,1.80
2024-02-17T07:30:44.096Z,2.72
2024-02-17T07:31:46.482Z,1.13
2024-02-17T07:32:48.836Z,7.50
2024-02-17T07:33:54.132Z,5.10
2024-02-17T07:34:56.711Z,3.97
2024-02-17T07:35:58.990Z,3.88
2024-02-17T07:37:03.557Z,2.97
2024-02-17T07:38:06.185Z,3.10
2024-02-17T07:39:11.224Z,2.35
2024-02-17T07:40:13.599Z,3.20
2024-02-17T07:41:15.870Z,1.33
2024-02-17T07:42:18.091Z,2.42
2024-02-17T07:43:21.178Z,5.05
2024-02-17T07:44:24.760Z,2.95
2024-02-17T07:45:27.591Z,2.78
2024-02-17T07:46:29.913Z,2.15
2024-02-17T07:47:33.824Z,2.60
2024-02-17T07:48:36.393Z,5.88
2024-02-17T07:49:38.978Z,5.13
2024-02-17T07:50:41.330Z,6.00
2024-02-17T07:51:44.433Z,3.53
2024-02-17T07:52:46.669Z,2.42
2024-02-17T07:53:48.822Z,3.00
2024-02-17T07:54:51.105Z,2.10
2024-02-17T07:55:53.681Z,4.13
2024-02-17T07:56:55.862Z,2.80
2024-02-17T07:57:58.128Z,2.88
2024-02-17T07:59:00.358Z,2.67
2024-02-17T08:00:04.296Z,1.08
2024-02-17T08:01:06.970Z,6.07
2024-02-17T08:02:09.262Z,3.20
2024-02-17T08:03:13.297Z,1.65
2024-02-17T08:04:15.684Z,2.25
2024-02-17T08:05:19.020Z,4.38
2024-02-17T08:06:21.632Z,1.30
2024-02-17T08:07:24.109Z,2.67
2024-02-17T08:08:26.938Z,6.13
2024-02-17T08:09:29.628Z,2.50
2024-02-17T08:10:32.055Z,3.63
2024-02-17T08:11:36.374Z,5.00
2024-02-17T08:12:39.208Z,1.40
2024-02-17T08:13:42.393Z,2.05
2024-02-17T08:14:44.677Z,4.25
2024-02-17T08:15:47.032Z,4.55
2024-02-17T08:16:49.572Z,3.67
2024-02-17T08:17:51.803Z,1.98
2024-02-17T08:18:54.330Z,1.33
2024-02-17T08:19:58.521Z,3.28
2024-02-17T08:21:03.474Z,3.85
2024-02-17T08:22:05.735Z,2.63
2024-02-17T08:23:08.004Z,3.65
2024-02-17T08:24:10.649Z,5.97
2024-02-17T08:25:13.021Z,5.18
2024-02-17T08:26:17.690Z,2.90
2024-02-17T08:27:21.157Z,6.72
2024-02-17T08:28:23.572Z,8.10
2024-02-17T08:29:25.931Z,2.35
2024-02-17T08:30:28.280Z,3.60
2024-02-17T08:31:30.540Z,2.05
2024-02-17T08:32:35.608Z,1.60
2024-02-17T08:33:38.090Z,4.57
2024-02-17T08:34:40.450Z,2.38
2024-02-17T08:35:42.836Z,2.20
2024-02-17T08:36:45.071Z,6.40
2024-02-17T08:37:47.286Z,4.70
2024-02-17T08:38:49.481Z,3.60
2024-02-17T08:39:51.828Z,7.97
2024-02-17T08:40:54.088Z,4.45
2024-02-17T08:41:56.782Z,4.55
2024-02-17T08:42:59.170Z,4.80
2024-02-17T08:44:02.011Z,5.07
2024-02-17T08:45:04.506Z,2.05
2024-02-17T08:46:06.730Z,3.33
2024-02-17T08:47:08.917Z,3.97
2024-02-17T08:48:11.304Z,5.78
2024-02-17T08:49:13.776Z,4.15
2024-02-17T08:50:16.251Z,3.72
2024-02-17T08:51:18.744Z,4.45
2024-02-17T08:52:21.024Z,6.80
2024-02-17T08:53:23.169Z,7.97
2024-02-17T08:54:27.091Z,7.30
2024-02-17T08:55:29.482Z,5.25
2024-02-17T08:56:31.715Z,10.93
2024-02-17T08:57:33.970Z,2.72
2024-02-17T08:58:36.220Z,4.68
2024-02-17T08:59:38.799Z,4.10
2024-02-17T09:00:41.142Z,3.08
2024-02-17T09:01:43.461Z,7.55
2024-02-17T09:02:45.984Z,4.38
2024-02-17T09:03:48.299Z,6.50
2024-02-17T09:04:50.679Z,3.83
2024-02-17T09:05:53.066Z,5.28
2024-02-17T09:06:56.419Z,4.90
2024-02-17T09:07:58.842Z,5.85
2024-02-17T09:09:01.187Z,3.22
2024-02-17T09:10:04.573Z,4.30
2024-02-17T09:11:06.858Z,3.35
2024-02-17T09:12:09.285Z,7.68
2024-02-17T09:13:11.655Z,8.32
2024-02-17T09:14:13.967Z,5.95
2024-02-17T09:15:16.359Z,5.57
2024-02-17T09:16:18.758Z,8.05
2024-02-17T09:17:21.028Z,1.67
2024-02-17T09:18:26.104Z,6.40
2024-02-17T09:19:28.861Z,6.70
2024-02-17T09:20:31.098Z,5.90
2024-02-17T09:21:33.763Z,3.65
2024-02-17T09:22:36.400Z,10.07
2024-02-17T09:23:39.019Z,3.92
2024-02-17T09:24:41.333Z,5.72
2024-02-17T09:25:43.566Z,4.38
2024-02-17T09:26:48.861Z,4.75
2024-02-17T09:27:51.178Z,6.53
2024-02-17T09:28:53.432Z,5.32
2024-02-17T09:29:55.566Z,8.10
2024-02-17T09:30:58.342Z,5.50
2024-02-17T09:32:00.782Z,8.82
2024-02-17T09:33:04.551Z,9.57
2024-02-17T09:34:08.612Z,10.95
2024-02-17T09:35:11.229Z,6.53
2024-02-17T09:36:13.720Z,7.65
2024-02-17T09:37:16.040Z,6.78
2024-02-17T09:38:18.415Z,7.07
2024-02-17T09:39:20.763Z,3.78
2024-02-17T09:40:22.986Z,5.22
2024-02-17T09:41:25.228Z,6.32
2024-02-17T09:42:27.488Z,15.07
2024-02-17T09:43:32.534Z,4.43
2024-02-17T09:44:34.873Z,10.00
2024-02-17T09:45:37.629Z,9.80
2024-02-17T09:46:39.862Z,4.15
2024-02-17T09:47:45.437Z,7.05
2024-02-17T09:48:47.830Z,1.92
2024-02-17T09:49:50.606Z,5.90
2024-02-17T09:50:54.981Z,7.40
2024-02-17T09:51:58.066Z,5.78
2024-02-17T09:53:02.451Z,4.05
2024-02-17T09:54:06.255Z,5.70
2024-02-17T09:55:09.168Z,9.20
2024-02-17T09:56:11.454Z,6.03
2024-02-17T09:57:13.949Z,5.57
2024-02-17T09:58:16.266Z,6.05
2024-02-17T09:59:18.486Z,3.15
2024-02-17T10:00:21.105Z,5.70
2024-02-17T10:01:28.076Z,7.45
2024-02-17T10:02:30.805Z,7.30
2024-02-17T10:03:33.832Z,5.55
2024-02-17T10:04:36.217Z,7.70
2024-02-17T10:05:38.690Z,4.15
2024-02-17T10:06:42.041Z,6.47
2024-02-17T10:07:51.932Z,7.07
2024-02-17T10:08:54.288Z,5.30
2024-02-17T10:09:56.486Z,10.10
2024-02-17T10:10:58.746Z,7.30
2024-02-17T10:12:01.276Z,9.48
2024-02-17T10:13:03.755Z,7.32
2024-02-17T10:14:06.212Z,6.60
2024-02-17T10:15:08.726Z,4.75
2024-02-17T10:16:15.924Z,10.88
2024-02-17T10:17:18.200Z,7.20
2024-02-17T10:18:23.586Z,6.30
2024-02-17T10:19:26.812Z,3.88
2024-02-17T10:20:29.191Z,2.83
2024-02-17T10:21:31.484Z,3.75
2024-02-17T10:22:34.487Z,5.95
2024-02-17T10:23:37.059Z,7.03
2024-02-17T10:24:39.842Z,8.52
2024-02-17T10:25:42.690Z,6.00
2024-02-17T10:26:44.921Z,7.00
2024-02-17T10:27:47.922Z,7.70
2024-02-17T10:28:56.928Z,7.95
2024-02-17T10:30:09.400Z,6.55
2024-02-17T10:31:11.971Z,6.25
2024-02-17T10:32:16.025Z,5.03
2024-02-17T10:33:18.503Z,5.38
2024-02-17T10:34:21.108Z,3.88
2024-02-17T10:35:24.099Z,7.60
2024-02-17T10:36:27.362Z,3.45
2024-02-17T10:37:35.853Z,7.13
2024-02-17T10:38:39.748Z,5.75
2024-02-17T10:39:43.614Z,7.03
2024-02-17T10:40:45.896Z,1.83
2024-02-17T10:41:49.279Z,6.00
2024-02-17T10:42:52.918Z,3.22
2024-02-17T10:43:55.365Z,6.80
2024-02-17T10:45:01.993Z,10.68
2024-02-17T10:46:13.751Z,4.15
2024-02-17T10:47:17.033Z,4.15
2024-02-17T10:48:22.818Z,5.53
2024-02-17T10:49:30.433Z,6.32
2024-02-17T10:50:35.290Z,5.57
2024-02-17T10:51:48.649Z,7.60
2024-02-17T10:52:55.801Z,3.80
2024-02-17T10:54:03.878Z,4.18
2024-02-17T10:55:09.936Z,4.05
2024-02-17T10:56:17.468Z,9.30
2024-02-17T10:57:22.430Z,5.75
2024-02-17T10:58:25.523Z,4.13
2024-02-17T10:59:31.099Z,3.60
2024-02-17T11:00:34.973Z,8.68
2024-02-17T11:01:37.800Z,11.27
2024-02-17T11:02:43.318Z,4.63
2024-02-17T11:03:46.411Z,9.45
2024-02-17T11:04:48.816Z,9.50
2024-02-17T11:05:55.436Z,5.10
2024-02-17T11:06:58.361Z,3.55
2024-02-17T11:08:01.247Z,5.13
2024-02-17T11:09:04.124Z,3.25
2024-02-17T11:10:07.745Z,5.63
2024-02-17T11:11:31.522Z,9.55
2024-02-17T11:12:36.383Z,6.55
2024-02-17T11:13:38.648Z,8.10
2024-02-17T11:14:42.889Z,4.10
2024-02-17T11:16:06.062Z,8.52
2024-02-17T11:17:10.405Z,3.55
2024-02-17T11:18:14.153Z,7.68
2024-02-17T11:19:25.324Z,4.65
2024-02-17T11:20:34.298Z,5.72
2024-02-17T11:21:39.797Z,4.50
2024-02-17T11:22:46.901Z,4.82
2024-02-17T11:23:49.315Z,2.42
2024-02-17T11:24:51.583Z,7.43
2024-02-17T11:25:53.913Z,2.55
2024-02-17T11:26:56.425Z,3.63
2024-02-17T11:28:06.304Z,5.63
2024-02-17T11:29:08.718Z,5.88
2024-02-17T11:30:11.744Z,4.63
2024-02-17T11:31:18.560Z,4.03
2024-02-17T11:32:20.785Z,4.18
2024-02-17T11:33:36.335Z,3.50
2024-02-17T11:34:42.624Z,6.53
2024-02-17T11:35:48.422Z,4.95
2024-02-17T11:36:50.974Z,4.85
2024-02-17T11:37:57.182Z,5.20
2024-02-17T11:39:00.312Z,6.43
2024-02-17T11:40:04.021Z,4.65
2024-02-17T11:41:06.437Z,4.40
2024-02-17T11:42:08.784Z,3.63
2024-02-17T11:43:11.092Z,5.28
2024-02-17T11:44:15.513Z,7.20
2024-02-17T11:45:17.874Z,7.20
2024-02-17T11:46:20.567Z,6.25
2024-02-17T11:47:22.829Z,4.70
2024-02-17T11:48:28.417Z,4.80
2024-02-17T11:49:36.698Z,5.03
2024-02-17T11:50:42.048Z,9.95
2024-02-17T11:51:44.421Z,5.97
2024-02-17T11:52:47.684Z,4.10
2024-02-17T11:53:51.201Z,6.95
2024-02-17T11:54:53.586Z,9.80
2024-02-17T11:56:02.438Z,2.55
2024-02-17T11:57:06.291Z,6.05
2024-02-17T11:58:10.767Z,6.63
2024-02-17T11:59:13.209Z,7.50
2024-02-17T12:00:17.452Z,14.07
2024-02-17T12:01:20.228Z,10.10
2024-02-17T12:02:24.632Z,9.48
2024-02-17T12:03:33.061Z,2.97
2024-02-17T12:04:39.318Z,6.18
2024-02-17T12:05:42.796Z,6.35
2024-02-17T12:06:45.150Z,5.75
2024-02-17T12:07:47.706Z,4.03
2024-02-17T12:08:49.952Z,5.63
2024-02-17T12:09:53.404Z,1.50
2024-02-17T12:10:56.925Z,9.23
2024-02-17T12:11:59.297Z,4.03
2024-02-17T12:13:01.777Z,4.25
2024-02-17T12:14:04.393Z,6.20
2024-02-17T12:15:14.074Z,5.20
2024-02-17T12:16:16.494Z,3.13
2024-02-17T12:17:19.373Z,8.73
2024-02-17T12:18:23.015Z,3.78
2024-02-17T12:19:26.741Z,7.78
2024-02-17T12:20:29.156Z,4.10
2024-02-17T12:21:31.487Z,4.15
2024-02-17T12:22:34.541Z,4.00
2024-02-17T12:23:39.739Z,7.03
2024-02-17T12:24:42.899Z,6.95
2024-02-17T12:25:45.338Z,7.20
2024-02-17T12:26:48.663Z,5.75
2024-02-17T12:27:51.767Z,3.33
2024-02-17T12:28:54.188Z,7.50
2024-02-17T12:29:56.501Z,4.60
2024-02-17T12:30:59.735Z,3.13
2024-02-17T12:32:02.276Z,7.05
2024-02-17T12:33:10.320Z,7.25
2024-02-17T12:34:25.468Z,6.63
2024-02-17T12:35:27.881Z,6.68
2024-02-17T12:36:30.863Z,6.25
2024-02-17T12:37:33.204Z,6.35
2024-02-17T12:38:35.390Z,8.32
2024-02-17T12:39:37.711Z,5.53
2024-02-17T12:40:39.983Z,2.20
2024-02-17T12:41:42.222Z,4.72
2024-02-17T12:42:45.316Z,6.60
2024-02-17T12:43:55.559Z,5.25
2024-02-17T12:44:58.951Z,3.03
2024-02-17T12:46:01.341Z,7.25
2024-02-17T12:47:17.431Z,4.18
2024-02-17T12:48:21.864Z,5.22
2024-02-17T12:49:29.508Z,4.78
2024-02-17T12:50:32.975Z,2.67
2024-02-17T12:51:38.712Z,5.90
2024-02-17T12:52:41.029Z,4.95
2024-02-17T12:53:43.621Z,2.20
2024-02-17T12:54:45.909Z,9.70
2024-02-17T12:55:50.073Z,5.32
2024-02-17T12:56:53.789Z,2.22
2024-02-17T12:57:56.175Z,3.22
2024-02-17T12:59:00.255Z,4.57
2024-02-17T13:00:04.074Z,5.72
2024-02-17T13:01:06.337Z,3.58
2024-02-17T13:02:09.253Z,5.20
2024-02-17T13:03:14.411Z,4.25
2024-02-17T13:04:16.947Z,8.07
2024-02-17T13:05:19.759Z,5.00
2024-02-17T13:06:22.694Z,6.13
2024-02-17T13:07:25.154Z,3.08
2024-02-17T13:08:27.463Z,6.32
2024-02-17T13:09:29.822Z,2.50
2024-02-17T13:10:33.076Z,4.00
2024-02-17T13:11:36.345Z,3.63
2024-02-17T13:12:38.648Z,3.83
2024-02-17T13:13:41.570Z,4.97
2024-02-17T13:14:43.820Z,4.72
2024-02-17T13:15:46.135Z,3.17
2024-02-17T13:16:48.390Z,3.40
2024-02-17T13:17:51.011Z,2.80
2024-02-17T13:18:58.278Z,5.72
2024-02-17T13:20:05.201Z,2.72
2024-02-17T13:21:07.761Z,5.43
2024-02-17T13:22:10.071Z,5.82
2024-02-17T13:23:12.341Z,7.10
2024-02-17T13:24:14.793Z,3.55
2024-02-17T13:25:17.317Z,8.18
2024-02-17T13:26:19.572Z,6.80
2024-02-17T13:27:21.809Z,6.63
2024-02-17T13:28:24.165Z,5.22
2024-02-17T13:29:27.279Z,6.93
2024-02-17T13:30:29.810Z,8.30
2024-02-17T13:31:33.393Z,4.93
2024-02-17T13:32:44.065Z,5.95
2024-02-17T13:33:49.677Z,12.05
2024-02-17T13:34:52.414Z,4.75
2024-02-17T13:35:54.773Z,5.80
2024-02-17T13:36:57.069Z,6.07
2024-02-17T13:38:01.171Z,6.50
2024-02-17T13:39:09.701Z,3.60
2024-02-17T13:40:13.801Z,9.10
2024-02-17T13:41:16.371Z,6.53
2024-02-17T13:42:18.660Z,3.38
2024-02-17T13:43:21.123Z,3.85
2024-02-17T13:44:23.449Z,2.50
2024-02-17T13:45:25.756Z,7.55
2024-02-17T13:46:27.985Z,2.55
2024-02-17T13:47:37.060Z,4.85
2024-02-17T13:48:39.551Z,5.53
2024-02-17T13:49:42.024Z,5.63
2024-02-17T13:50:44.384Z,3.25
2024-02-17T13:51:46.758Z,9.98
2024-02-17T13:52:49.337Z,7.10
2024-02-17T13:53:52.308Z,5.03
2024-02-17T13:54:54.664Z,9.10
2024-02-17T13:55:58.333Z,3.90